Bookmark and Share
Track history (hours):
 

Aleksandr Zhitnik

Last reported at 2013-Dec-27 11:32 UTC. Time now 2014-Apr-24 11:06 UTC.
Position N 46°34' E 032°25'.
Warning: this ship's position is months out of date.

Length 85 m; draft 1.8 m.

Type: Cargo ship. MMSI: 272089600.

NotesDate/timePositionNaut miles runAvg speedWind from/ knotsBaromVisibWave heightAir tempDewpointWater temp
2013-Dec-27 11:32N 46°34' E 032°25'6 5.8
2013-Dec-27 10:33N 46°33' E 032°17'6 5.6
2013-Dec-27 09:32N 46°32' E 032°09'2 2.4
2013-Dec-27 08:32N 46°32' E 032°05'0 0.0
2013-Dec-27 07:33N 46°32' E 032°05'0 0.0
2013-Dec-27 06:33N 46°32' E 032°05'0 0.0
2013-Dec-27 05:32N 46°32' E 032°05'0 0.0
2013-Dec-27 04:33N 46°32' E 032°05'0 0.0
2013-Dec-27 03:27N 46°32' E 032°05'0 0.0
2013-Dec-27 02:27N 46°32' E 032°05'0 0.0
2013-Dec-27 01:26N 46°32' E 032°05'0 0.0
2013-Dec-27 00:23N 46°32' E 032°05'0 0.0
2013-Dec-26 22:29N 46°32' E 032°05'0 0.0
2013-Dec-26 21:34N 46°32' E 032°05'3 3.4
2013-Dec-26 20:33N 46°33' E 032°00'5 5.2
2013-Dec-26 19:34N 46°34' E 031°53'5 5.3
2013-Dec-26 18:33N 46°35' E 031°46'5 5.2
2013-Dec-26 17:33N 46°35' E 031°38'6 4.9
2013-Dec-26 16:23N 46°36' E 031°30'4 4.9
2013-Dec-26 15:34N 46°35' E 031°24'5 4.9
2013-Dec-26 14:34N 46°35' E 031°17'5 4.5
2013-Dec-26 13:33N 46°35' E 031°10'5 5.0
2013-Dec-26 12:31N 46°34' E 031°03'5 5.2
2013-Dec-26 11:33N 46°32' E 030°56'8 0.6
2013-Dec-25 23:21N 46°29' E 030°46'  
2013-Dec-22 19:14N 46°29' E 030°45'0 0.0
2013-Dec-21 10:08N 46°29' E 030°45'0 0.0
2013-Dec-21 09:17N 46°29' E 030°45'0 0.0
2013-Dec-21 08:08N 46°29' E 030°45'0 0.0
2013-Dec-21 07:32N 46°29' E 030°45'0 0.0
2013-Dec-21 06:26N 46°29' E 030°45'0 0.0
2013-Dec-21 05:23N 46°29' E 030°45'0 0.0
2013-Dec-21 04:29N 46°29' E 030°45'0 0.0
2013-Dec-21 03:32N 46°29' E 030°45'0 0.0
2013-Dec-21 02:32N 46°29' E 030°45'0 0.0
2013-Dec-21 01:29N 46°29' E 030°45'0 0.0
2013-Dec-21 00:32N 46°29' E 030°45'0 0.0
2013-Dec-20 21:26N 46°29' E 030°45'0 0.0
2013-Dec-19 05:32N 46°29' E 030°45'0 0.0
2013-Dec-19 04:08N 46°29' E 030°45'  

Dump ship's entire track history

sailing weather and tide predictions

Aleksandr Zhitnik — EMBN — position and weather